SBBR

Brasília International Airport/President Juscelino Kubitschek

Airport
ICAO code
SBBR
IATA Code
BSB
Summary
ICAO Region
CARSAM
ICAO Territory
Location

Lago Sul, Federal District

Serving
Brasilia
Elevation
3479 ft
Coordinates
15° 51' 46" S , 47° 54' 46" W
KCC
Airport RE
Hot and High Operations
Metar
Observation
SBBR 060400Z VRB01KT CAVOK 21/16 Q1017
Station
Brasilia Aeroporto
Date/Time
2022-10-06 04:00:00
Wind speed
01 kts
Lowest cloud amount
clouds and visibility OK
Temperature
21°C
Dew point
16°C
Humidity
73%
QNH
1017 hPa
Weather condition
n/a

Brasília's International airport.

Climatology

Tropical Savanna climate (Köppen climate classification Aw)

Runways

Designator Length Width Surface Rops
11L/29R 3200 45 ASP Yes/Yes
11R/29L 3300 45 ASP Yes/Yes

Airport map

Aerial View

SKYbrary Partners:

Safety knowledge contributed by: